Time;durP1;ratioP1;P1;durP2;ratioP2;P2;SDS_P1;SDS_P2;PMS_P1;PMS_P2;Temp;Humidity;BMP_temperature;BMP_pressure;BME280_temperature;BME280_humidity;BME280_pressure;Samples;Min_cycle;Max_cycle;Signal;HPM_P1;HPM_P2
2023/01/28 00:02:02;;;;;;;0.65;0.60;;;;;;;3.12;83.03;103142.44;5056722;27;97795;-29
2023/01/28 00:04:27;;;;;;;1.02;0.95;;;;;;;3.11;83.17;103148.66;5056895;27;97998;-29
2023/01/28 00:06:52;;;;;;;0.73;0.73;;;;;;;3.12;82.48;103158.50;5056582;27;96524;-30
2023/01/28 00:09:18;;;;;;;0.65;0.65;;;;;;;3.12;82.59;103169.22;5056571;27;96775;-30
2023/01/28 00:11:43;;;;;;;0.38;0.35;;;;;;;3.12;82.63;103162.94;5055981;27;98051;-29
2023/01/28 00:14:10;;;;;;;1.95;1.05;;;;;;;3.09;82.58;103163.81;5056193;27;97388;-29
2023/01/28 00:16:36;;;;;;;1.20;1.08;;;;;;;3.08;82.93;103171.84;5055198;27;96659;-29
2023/01/28 00:19:01;;;;;;;1.23;1.13;;;;;;;3.06;82.62;103170.94;5056538;27;96753;-29
2023/01/28 00:21:26;;;;;;;1.63;1.38;;;;;;;3.04;82.71;103159.31;5056434;27;97168;-29
2023/01/28 00:23:54;;;;;;;0.82;0.73;;;;;;;3.06;82.43;103163.81;5055376;27;97808;-29
2023/01/28 00:26:21;;;;;;;1.55;0.75;;;;;;;3.04;82.90;103153.97;5054956;27;96666;-28
2023/01/28 00:28:47;;;;;;;1.17;0.68;;;;;;;3.03;82.67;103152.16;5055317;27;96922;-30
2023/01/28 00:31:18;;;;;;;1.10;0.77;;;;;;;3.03;82.42;103162.88;5054562;27;101135;-30
2023/01/28 00:33:46;;;;;;;0.90;0.85;;;;;;;3.03;82.27;103158.44;5054527;27;101046;-30
2023/01/28 00:36:12;;;;;;;1.52;1.10;;;;;;;3.04;82.66;103153.97;5054327;27;96567;-29
2023/01/28 00:38:39;;;;;;;1.92;0.85;;;;;;;3.01;82.27;103159.31;5054828;27;96507;-29
2023/01/28 00:41:09;;;;;;;0.77;0.73;;;;;;;3.02;82.17;103156.63;5054351;27;100802;-30
2023/01/28 00:43:35;;;;;;;1.52;1.02;;;;;;;3.03;82.55;103157.50;5054242;27;101221;-29
2023/01/28 00:46:00;;;;;;;1.40;1.02;;;;;;;3.05;82.75;103158.44;5054789;27;96619;-28
2023/01/28 00:48:26;;;;;;;0.98;0.82;;;;;;;3.02;82.58;103158.41;5055938;27;97496;-29
2023/01/28 00:50:51;;;;;;;1.10;0.98;;;;;;;2.95;82.14;103161.03;5056073;27;97402;-28
2023/01/28 00:53:17;;;;;;;1.38;1.15;;;;;;;2.95;82.28;103161.03;5055866;27;97767;-31
2023/01/28 00:55:42;;;;;;;0.98;0.55;;;;;;;2.97;82.58;103161.06;5055919;27;96683;-31
2023/01/28 00:58:07;;;;;;;1.50;0.82;;;;;;;2.97;82.36;103158.38;5055697;27;96926;-29
2023/01/28 01:00:33;;;;;;;1.13;1.02;;;;;;;2.95;82.47;103162.81;5054056;27;98882;-29
2023/01/28 01:02:58;;;;;;;1.65;1.02;;;;;;;2.94;81.95;103155.69;5055630;27;98076;-29
2023/01/28 01:05:24;;;;;;;1.75;1.15;;;;;;;2.98;82.49;103162.88;5054397;27;96578;-28
2023/01/28 01:07:49;;;;;;;0.98;0.68;;;;;;;3.00;82.21;103160.19;5055931;27;97125;-29
2023/01/28 01:10:17;;;;;;;0.90;0.88;;;;;;;2.99;82.51;103151.25;5055361;27;97440;-28
2023/01/28 01:12:46;;;;;;;1.98;1.77;;;;;;;2.97;82.54;103147.66;5053758;27;101256;-29
2023/01/28 01:15:11;;;;;;;0.63;0.63;;;;;;;3.00;82.32;103155.72;5054406;27;96750;-29
2023/01/28 01:17:41;;;;;;;2.13;1.63;;;;;;;3.02;82.46;103159.31;5055868;27;96617;-30
2023/01/28 01:20:14;;;;;;;6.43;3.50;;;;;;;2.99;82.68;103151.25;5055107;27;97353;-30
2023/01/28 01:22:40;;;;;;;2.45;1.23;;;;;;;2.96;82.36;103157.50;5053519;27;100980;-28
2023/01/28 01:25:06;;;;;;;1.05;0.80;;;;;;;2.97;82.91;103159.25;5054692;27;96794;-29
2023/01/28 01:27:31;;;;;;;0.90;0.75;;;;;;;3.02;82.69;103159.31;5055991;27;96760;-29
2023/01/28 01:29:57;;;;;;;0.70;0.70;;;;;;;3.00;82.29;103158.38;5055446;27;97381;-30
2023/01/28 01:32:24;;;;;;;0.98;0.80;;;;;;;3.00;82.33;103160.19;5053540;27;101008;-29
2023/01/28 01:34:50;;;;;;;1.13;1.02;;;;;;;2.98;82.09;103168.22;5054050;27;96565;-29
2023/01/28 01:37:15;;;;;;;0.95;0.85;;;;;;;2.92;82.14;103158.34;5055483;27;96845;-29
2023/01/28 01:39:41;;;;;;;1.00;0.55;;;;;;;2.93;81.92;103162.84;5054814;27;99389;-28
2023/01/28 01:42:10;;;;;;;1.08;0.40;;;;;;;2.94;82.19;103158.38;5055376;27;98004;-29
2023/01/28 01:45:12;;;;;;;1.55;1.08;;;;;;;2.95;82.58;103155.69;5053792;27;96704;-29
2023/01/28 01:47:46;;;;;;;1.00;0.95;;;;;;;2.94;82.20;103148.53;5040073;27;96814;-29
2023/01/28 01:50:27;;;;;;;2.78;1.52;;;;;;;2.94;81.92;103161.94;5052948;27;101088;-29
2023/01/28 01:52:58;;;;;;;1.42;1.17;;;;;;;2.92;81.64;103155.66;5053430;27;100768;-29
2023/01/28 01:55:26;;;;;;;1.10;0.70;;;;;;;2.91;82.19;103148.53;5055422;27;96767;-28
2023/01/28 01:57:55;;;;;;;1.83;1.25;;;;;;;2.90;82.15;103159.22;5053649;27;96815;-29
2023/01/28 02:00:20;;;;;;;1.70;1.20;;;;;;;2.87;81.76;103160.09;5054610;27;99233;-30
2023/01/28 02:02:48;;;;;;;1.23;0.90;;;;;;;2.88;82.21;103161.88;5058570;27;97408;-29
2023/01/28 02:05:18;;;;;;;1.70;0.88;;;;;;;2.89;81.77;103154.75;5057228;27;96574;-30
2023/01/28 02:07:46;;;;;;;1.48;0.80;;;;;;;2.87;81.86;103157.41;5057549;27;96632;-30
2023/01/28 02:10:13;;;;;;;1.10;0.73;;;;;;;2.93;82.06;103152.13;5056840;27;100837;-30
2023/01/28 02:12:52;;;;;;;0.73;0.73;;;;;;;2.93;81.88;103145.84;5056718;27;101227;-29
2023/01/28 02:15:24;;;;;;;1.25;0.28;;;;;;;2.91;81.86;103153.88;5058390;27;96533;-29
2023/01/28 02:17:51;;;;;;;1.25;1.15;;;;;;;2.90;82.12;103154.75;5056892;27;96984;-29
2023/01/28 02:20:48;;;;;;;1.73;1.27;;;;;;;2.86;81.71;103161.00;5056708;27;101017;-30
2023/01/28 02:23:44;;;;;;;1.10;0.90;;;;;;;2.83;82.30;103160.94;5057650;27;97940;-29
2023/01/28 02:26:30;;;;;;;0.68;0.60;;;;;;;2.84;81.86;103169.91;5057096;27;96535;-29
2023/01/28 02:29:15;;;;;;;0.50;0.50;;;;;;;2.84;82.07;103165.44;5056945;27;96698;-30
2023/01/28 02:31:49;;;;;;;0.93;0.80;;;;;;;2.86;81.88;103170.78;5056555;27;101257;-29
2023/01/28 02:34:23;;;;;;;1.75;0.90;;;;;;;2.87;82.13;103173.47;5056713;27;101285;-29
2023/01/28 02:37:01;;;;;;;0.98;0.93;;;;;;;2.85;81.69;103182.38;5056853;27;96796;-29
2023/01/28 02:39:33;;;;;;;0.98;0.85;;;;;;;2.87;82.19;103180.63;5057999;27;96625;-30
2023/01/28 02:42:03;;;;;;;;;;;;;;;2.88;81.77;103179.72;5056239;27;100771;-29
2023/01/28 02:44:28;;;;;;;0.35;0.30;;;;;;;2.84;82.09;103170.78;5057626;27;97950;-29
2023/01/28 02:49:43;;;;;;;1.25;0.93;;;;;;;2.81;81.94;103178.75;5057478;27;96769;-29
2023/01/28 02:53:39;;;;;;;0.90;0.90;;;;;;;2.81;81.97;103168.06;5057313;27;99471;-28
2023/01/28 02:55:17;;;;;;;2.50;0.90;;;;;;;2.84;82.23;103161.88;5057205;27;98654;-29
2023/01/28 02:57:57;;;;;;;0.93;0.80;;;;;;;2.85;81.99;103164.53;5056412;27;96719;-29
2023/01/28 03:00:30;;;;;;;1.48;0.65;;;;;;;2.84;81.91;103165.44;5056845;27;96678;-29
2023/01/28 03:03:07;;;;;;;1.35;1.13;;;;;;;2.86;81.76;103154.72;5055959;27;101014;-29
2023/01/28 03:05:38;;;;;;;1.65;0.70;;;;;;;2.87;82.04;103160.09;5057512;27;97838;-29
2023/01/28 03:09:21;;;;;;;1.50;1.40;;;;;;;2.88;82.23;103167.22;5055827;27;96703;-30
2023/01/28 03:38:47;;;;;;;1.02;0.90;;;;;;;2.81;81.93;103184.13;5055131;27;96907;-29
2023/01/28 03:41:20;;;;;;;1.02;0.73;;;;;;;2.81;82.15;103173.41;5055693;27;96700;-29
2023/01/28 03:43:46;;;;;;;1.33;0.95;;;;;;;2.82;81.95;103172.53;5057123;27;96635;-28
2023/01/28 03:46:11;;;;;;;0.63;0.63;;;;;;;2.80;81.92;103176.97;5056519;27;98890;-28
2023/01/28 03:48:36;;;;;;;0.90;0.88;;;;;;;2.78;81.86;103175.19;5056711;27;97571;-29
2023/01/28 03:51:02;;;;;;;0.75;0.75;;;;;;;2.76;81.83;103172.47;5057073;27;96526;-29
2023/01/28 03:53:27;;;;;;;2.30;1.05;;;;;;;2.77;81.55;103171.63;5057164;27;96725;-29
2023/01/28 03:55:53;;;;;;;1.23;0.80;;;;;;;2.78;81.97;103169.81;5056384;27;98855;-29
2023/01/28 03:58:19;;;;;;;0.82;0.52;;;;;;;2.79;82.21;103163.56;5055086;27;101157;-29
2023/01/28 04:00:45;;;;;;;0.63;0.60;;;;;;;2.80;82.07;103170.75;5054929;27;96554;-31
2023/01/28 04:03:16;;;;;;;1.15;1.00;;;;;;;2.79;81.95;103175.22;5055093;27;96823;-28
2023/01/28 04:05:46;;;;;;;1.70;1.35;;;;;;;2.79;82.19;103185.00;5054952;27;101386;-28
2023/01/28 04:08:12;;;;;;;1.98;1.50;;;;;;;2.71;81.84;103192.97;5054961;27;99371;-28
2023/01/28 04:10:39;;;;;;;0.63;0.63;;;;;;;2.72;82.07;103205.47;5055345;27;96528;-29
2023/01/28 04:13:05;;;;;;;1.70;0.60;;;;;;;2.72;81.65;103214.38;5055160;27;96794;-29
2023/01/28 04:15:31;;;;;;;2.40;1.05;;;;;;;2.71;81.62;103209.00;5054923;27;100974;-30
2023/01/28 04:17:56;;;;;;;1.30;0.98;;;;;;;2.71;81.83;103212.56;5055243;27;101458;-29
2023/01/28 04:20:22;;;;;;;0.93;0.77;;;;;;;2.70;81.49;103207.22;5056574;27;96502;-28
2023/01/28 04:22:47;;;;;;;0.93;0.75;;;;;;;2.72;82.06;103206.38;5056320;27;96735;-30
2023/01/28 04:25:13;;;;;;;1.27;0.75;;;;;;;2.70;81.40;103201.88;5054711;27;97794;-29
2023/01/28 04:27:38;;;;;;;1.30;1.20;;;;;;;2.73;81.62;103207.25;5056167;27;97574;-29
2023/01/28 04:30:04;;;;;;;0.80;0.47;;;;;;;2.70;81.19;103213.47;5056876;27;96455;-29
2023/01/28 04:32:29;;;;;;;0.57;0.55;;;;;;;2.70;81.62;103218.81;5056093;27;96606;-29
2023/01/28 04:34:54;;;;;;;0.63;0.63;;;;;;;2.70;81.94;103208.13;5056112;27;97789;-30
2023/01/28 04:37:20;;;;;;;0.88;0.43;;;;;;;2.67;81.29;103215.22;5056153;27;97772;-28
2023/01/28 04:39:45;;;;;;;0.60;0.52;;;;;;;2.65;81.25;103214.31;5056419;27;96552;-28
2023/01/28 04:42:10;;;;;;;0.85;0.70;;;;;;;2.66;81.58;103210.75;5056447;27;96836;-29
2023/01/28 04:44:36;;;;;;;0.20;0.20;;;;;;;2.64;81.22;103202.69;5056066;27;97438;-29
2023/01/28 04:47:01;;;;;;;0.35;0.35;;;;;;;2.65;81.32;103195.59;5055610;27;97787;-29
2023/01/28 04:49:26;;;;;;;0.25;0.25;;;;;;;2.65;81.53;103195.59;5055756;27;96542;-29
2023/01/28 04:51:52;;;;;;;0.55;0.55;;;;;;;2.64;81.47;103192.00;5056065;27;96786;-29
2023/01/28 04:54:17;;;;;;;0.80;0.68;;;;;;;2.62;81.19;103196.47;5055567;27;97798;-29
2023/01/28 04:56:42;;;;;;;0.65;0.50;;;;;;;2.58;81.29;103188.41;5055806;27;97385;-29
2023/01/28 04:59:08;;;;;;;1.35;0.68;;;;;;;2.61;81.69;103185.75;5056163;27;96713;-29
2023/01/28 05:01:33;;;;;;;0.95;0.77;;;;;;;2.60;81.68;103186.59;5055899;27;96776;-29
2023/01/28 05:04:04;;;;;;;0.35;0.35;;;;;;;2.61;81.69;103191.09;5055582;27;97765;-29
2023/01/28 05:06:30;;;;;;;0.88;0.50;;;;;;;2.62;81.40;103196.47;5055774;27;99269;-29
2023/01/28 05:08:55;;;;;;;0.63;0.55;;;;;;;2.62;81.57;103192.88;5055868;27;96588;-30
2023/01/28 05:11:20;;;;;;;0.43;0.30;;;;;;;2.61;81.67;103191.97;5055758;27;96755;-29
2023/01/28 05:13:45;;;;;;;0.30;0.30;;;;;;;2.62;81.06;103192.88;5054884;27;99226;-29
2023/01/28 05:16:11;;;;;;;0.57;0.50;;;;;;;2.60;81.13;103202.66;5055241;27;97287;-29
2023/01/28 05:18:36;;;;;;;0.43;0.32;;;;;;;2.62;81.41;103215.19;5055511;27;96494;-29
2023/01/28 05:21:01;;;;;;;1.25;0.63;;;;;;;2.60;81.63;103210.69;5055736;27;96795;-29
2023/01/28 05:23:27;;;;;;;0.47;0.40;;;;;;;2.53;81.31;103201.72;5055174;27;97875;-30
2023/01/28 05:25:52;;;;;;;0.57;0.50;;;;;;;2.55;81.13;103208.88;5054772;27;98748;-29
2023/01/28 05:28:17;;;;;;;0.32;0.32;;;;;;;2.59;81.51;103203.56;5055575;27;96544;-30
2023/01/28 05:30:43;;;;;;;1.60;0.70;;;;;;;2.58;80.71;103201.78;5055849;27;96740;-29
2023/01/28 05:33:08;;;;;;;0.13;0.13;;;;;;;2.56;81.29;103204.41;5055208;27;98888;-28
2023/01/28 05:35:35;;;;;;;1.70;0.93;;;;;;;2.53;80.96;103202.63;5054123;27;98693;-29
2023/01/28 05:38:00;;;;;;;1.10;0.50;;;;;;;2.49;81.27;103190.06;5053541;27;96815;-29
2023/01/28 05:40:26;;;;;;;0.22;0.22;;;;;;;2.47;81.07;103185.59;5055448;27;96741;-30
2023/01/28 05:42:51;;;;;;;0.13;0.13;;;;;;;2.52;81.22;103199.91;5054731;27;99442;-29
2023/01/28 05:45:16;;;;;;;0.20;0.20;;;;;;;2.51;80.71;103199.03;5054804;27;97278;-29
2023/01/28 05:47:42;;;;;;;0.32;0.30;;;;;;;2.49;80.43;103191.88;5055480;27;96568;-29
2023/01/28 05:50:13;;;;;;;1.58;0.50;;;;;;;2.45;80.45;103190.91;5055515;27;96823;-29
2023/01/28 05:52:38;;;;;;;0.35;0.30;;;;;;;2.43;81.04;103187.38;5053316;27;100763;-29
2023/01/28 05:55:05;;;;;;;0.20;0.20;;;;;;;2.42;80.52;103193.56;5054962;27;97757;-29
2023/01/28 05:57:30;;;;;;;0.45;0.45;;;;;;;2.43;80.92;103197.13;5053557;27;97693;-29
2023/01/28 05:59:56;;;;;;;0.80;0.60;;;;;;;2.44;80.74;103194.50;5054727;27;96940;-29
2023/01/28 06:02:21;;;;;;;0.57;0.57;;;;;;;2.47;80.93;103199.88;5054402;27;97861;-30
2023/01/28 06:04:46;;;;;;;0.47;0.47;;;;;;;2.44;80.55;103188.25;5054428;27;98710;-29
2023/01/28 06:07:12;;;;;;;0.30;0.30;;;;;;;2.45;80.65;103198.94;5055015;27;96662;-29
2023/01/28 06:09:38;;;;;;;0.40;0.40;;;;;;;2.47;80.57;103198.97;5055184;27;96756;-29
2023/01/28 06:12:04;;;;;;;0.43;0.25;;;;;;;2.49;80.45;103210.59;5053048;27;101072;-29
2023/01/28 06:14:29;;;;;;;0.30;0.20;;;;;;;2.47;80.27;103196.31;5052809;27;103033;-29
2023/01/28 06:16:55;;;;;;;0.80;0.40;;;;;;;2.45;81.04;103193.59;5054941;27;96549;-29
2023/01/28 06:19:20;;;;;;;3.83;0.73;;;;;;;2.46;80.40;103200.75;5055323;27;96505;-29
2023/01/28 06:21:45;;;;;;;0.35;0.35;;;;;;;2.46;80.81;103205.22;5054341;27;99356;-30
2023/01/28 06:24:11;;;;;;;0.30;0.30;;;;;;;2.41;79.74;103202.50;5053615;27;98646;-29
2023/01/28 06:26:37;;;;;;;0.60;0.57;;;;;;;2.39;79.58;103193.56;5052735;27;96550;-30
2023/01/28 06:29:02;;;;;;;0.57;0.45;;;;;;;2.40;80.39;103208.69;5054316;27;96787;-31
2023/01/28 06:31:27;;;;;;;0.35;0.35;;;;;;;2.41;80.28;103209.59;5054351;27;97717;-29
2023/01/28 06:33:53;;;;;;;0.32;0.30;;;;;;;2.45;80.53;103219.47;5054534;27;97432;-29
2023/01/28 06:36:18;;;;;;;0.40;0.38;;;;;;;2.44;80.09;103223.91;5054512;27;96627;-29
2023/01/28 06:38:44;;;;;;;0.22;0.22;;;;;;;2.43;80.44;103219.47;5054813;27;96768;-30
2023/01/28 06:41:09;;;;;;;0.32;0.32;;;;;;;2.45;80.55;103228.38;5054364;27;97942;-28
2023/01/28 06:43:34;;;;;;;0.20;0.17;;;;;;;2.44;80.41;103223.03;5054430;27;97699;-29
2023/01/28 06:46:00;;;;;;;0.40;0.40;;;;;;;2.46;80.75;103216.81;5054609;27;96471;-29
2023/01/28 06:48:26;;;;;;;0.63;0.35;;;;;;;2.46;80.51;103224.84;5057560;27;96838;-28
2023/01/28 06:50:52;;;;;;;0.38;0.32;;;;;;;2.45;80.50;103216.78;5055711;27;101087;-29
2023/01/28 06:53:18;;;;;;;0.28;0.28;;;;;;;2.45;80.72;103223.03;5057614;27;97709;-29
2023/01/28 06:55:44;;;;;;;1.23;0.65;;;;;;;2.45;80.43;103223.03;5056430;27;96751;-29
2023/01/28 06:58:09;;;;;;;0.82;0.77;;;;;;;2.48;80.70;103224.81;5057363;27;96836;-29
2023/01/28 07:00:34;;;;;;;0.40;0.35;;;;;;;2.50;80.83;103226.66;5057745;27;96730;-28
2023/01/28 07:03:00;;;;;;;0.17;0.17;;;;;;;2.49;80.92;103223.97;5057525;27;97784;-29
2023/01/28 07:05:26;;;;;;;0.35;0.35;;;;;;;2.49;80.40;103216.84;5057577;27;96545;-28
2023/01/28 07:07:51;;;;;;;0.50;0.40;;;;;;;2.49;80.80;103218.63;5058238;27;96827;-30
2023/01/28 07:10:17;;;;;;;0.10;0.10;;;;;;;2.45;80.91;103225.69;5057526;27;97762;-29
2023/01/28 07:12:42;;;;;;;1.10;1.00;;;;;;;2.44;80.44;103220.34;5057263;27;97970;-29
2023/01/28 07:15:09;;;;;;;0.20;0.20;;;;;;;2.44;80.22;103225.69;5057567;27;96509;-29
2023/01/28 07:17:38;;;;;;;0.52;0.50;;;;;;;2.45;80.62;103220.34;5056190;27;96673;-29
2023/01/28 07:20:04;;;;;;;0.40;0.40;;;;;;;2.43;80.40;103223.88;5055798;27;100870;-31
2023/01/28 07:22:29;;;;;;;0.45;0.45;;;;;;;2.44;80.16;103225.69;5055535;27;102035;-28
2023/01/28 07:24:55;;;;;;;0.28;0.25;;;;;;;2.47;80.25;103233.75;5057092;27;96723;-29
2023/01/28 07:27:20;;;;;;;0.75;0.65;;;;;;;2.45;81.07;103236.38;5057151;27;96790;-28
2023/01/28 07:29:45;;;;;;;0.40;0.40;;;;;;;2.44;79.84;103226.59;5057282;27;97840;-28
2023/01/28 07:32:11;;;;;;;0.35;0.35;;;;;;;2.33;79.57;103223.78;5055748;27;100903;-29
2023/01/28 07:34:38;;;;;;;0.75;0.68;;;;;;;2.35;80.07;103231.84;5057486;27;96699;-30
2023/01/28 07:37:05;;;;;;;0.50;0.50;;;;;;;2.35;80.65;103231.84;5057295;27;96847;-30
2023/01/28 07:39:30;;;;;;;0.22;0.22;;;;;;;2.32;79.42;103222.00;5054942;27;101484;-29
2023/01/28 07:41:56;;;;;;;0.68;0.55;;;;;;;2.29;79.60;103210.41;5056645;27;97857;-29
2023/01/28 07:44:21;;;;;;;0.65;0.57;;;;;;;2.25;80.22;103209.44;5057317;27;96473;-29
2023/01/28 07:46:46;;;;;;;0.28;0.28;;;;;;;2.29;80.25;103227.31;5057264;27;96723;-29
2023/01/28 07:49:12;;;;;;;0.40;0.40;;;;;;;2.32;80.64;103232.69;5056901;27;98100;-28
2023/01/28 07:51:37;;;;;;;0.30;0.30;;;;;;;2.33;80.68;103237.16;5056350;27;98815;-29
2023/01/28 07:54:03;;;;;;;0.73;0.40;;;;;;;2.31;80.42;103236.25;5056917;27;96824;-29
2023/01/28 07:56:30;;;;;;;0.68;0.50;;;;;;;2.30;80.61;103236.25;5057151;27;96805;-29
2023/01/28 07:58:55;;;;;;;0.45;0.43;;;;;;;2.30;80.27;103238.91;5054363;27;101002;-30
2023/01/28 08:01:21;;;;;;;0.85;0.65;;;;;;;2.26;80.78;103242.41;5056535;27;97754;-29
2023/01/28 08:03:46;;;;;;;2.63;1.27;;;;;;;2.24;80.47;103244.19;5056447;27;96588;-29
2023/01/28 08:06:11;;;;;;;2.67;1.83;;;;;;;2.24;80.40;103241.50;5056671;27;96833;-29
2023/01/28 08:08:36;;;;;;;2.47;1.15;;;;;;;2.19;80.61;103224.50;5056524;27;97549;-28
2023/01/28 08:11:07;;;;;;;1.52;1.25;;;;;;;2.20;80.43;103237.03;5056295;27;97895;-29
2023/01/28 08:13:33;;;;;;;1.67;1.27;;;;;;;2.20;80.66;103237.03;5055059;27;96657;-30
2023/01/28 08:15:58;;;;;;;1.23;1.13;;;;;;;2.20;80.81;103247.72;5056833;27;96756;-31
2023/01/28 08:18:24;;;;;;;0.45;0.43;;;;;;;2.19;80.42;103241.44;5056454;27;97916;-29
2023/01/28 08:20:54;;;;;;;0.32;0.32;;;;;;;2.23;80.40;103250.41;5056474;27;99276;-28
2023/01/28 08:23:19;;;;;;;1.02;0.93;;;;;;;2.24;80.85;103255.78;5055018;27;96576;-29
2023/01/28 08:25:45;;;;;;;1.20;0.85;;;;;;;2.29;80.73;103259.41;5056557;27;96746;-29
2023/01/28 08:28:12;;;;;;;0.93;0.90;;;;;;;2.29;80.43;103256.75;5054286;27;101343;-29
2023/01/28 08:30:39;;;;;;;0.80;0.77;;;;;;;2.30;80.67;103265.66;5055778;27;99241;-29
2023/01/28 08:33:06;;;;;;;0.63;0.60;;;;;;;2.33;80.38;103266.56;5056319;27;96757;-29
2023/01/28 08:35:32;;;;;;;0.65;0.55;;;;;;;2.32;80.54;103267.47;5054849;27;96820;-28
2023/01/28 08:37:59;;;;;;;0.35;0.35;;;;;;;2.29;80.24;103264.75;5054660;27;101046;-29
2023/01/28 08:40:25;;;;;;;0.22;0.17;;;;;;;2.32;79.97;103285.28;5054318;27;101179;-29
2023/01/28 08:42:52;;;;;;;0.75;0.40;;;;;;;2.32;80.21;103296.88;5054753;27;96685;-28
2023/01/28 08:45:21;;;;;;;0.57;0.57;;;;;;;2.33;79.96;103298.66;5055183;27;96900;-29
2023/01/28 08:47:51;;;;;;;0.77;0.77;;;;;;;2.38;80.64;103301.41;5055753;27;99429;-29
2023/01/28 08:50:18;;;;;;;3.10;1.58;;;;;;;2.39;80.40;103303.22;5054372;27;101212;-29
2023/01/28 08:52:44;;;;;;;2.63;1.90;;;;;;;2.40;79.89;103304.09;5053872;27;96850;-29
2023/01/28 08:55:11;;;;;;;1.70;1.45;;;;;;;2.41;80.06;103304.13;5055700;27;96727;-28
2023/01/28 08:57:36;;;;;;;0.93;0.70;;;;;;;2.44;79.82;103308.63;5054342;27;101127;-29
2023/01/28 09:00:02;;;;;;;0.75;0.75;;;;;;;2.44;79.52;103311.28;5055627;27;97361;-29
2023/01/28 09:02:27;;;;;;;1.20;0.98;;;;;;;2.49;79.91;103307.78;5055843;27;96643;-29
2023/01/28 09:04:53;;;;;;;1.13;0.95;;;;;;;2.52;80.05;103304.25;5055939;27;96794;-29
2023/01/28 09:07:19;;;;;;;0.75;0.73;;;;;;;2.46;79.48;103299.72;5055577;27;97902;-28
2023/01/28 09:09:44;;;;;;;0.63;0.55;;;;;;;2.50;78.99;103304.25;5054667;27;101190;-29
2023/01/28 09:12:10;;;;;;;1.58;0.65;;;;;;;2.52;78.34;103304.25;5054204;27;97027;-28
2023/01/28 09:14:35;;;;;;;0.93;0.80;;;;;;;2.61;78.45;103309.69;5055513;27;96884;-29
2023/01/28 09:17:01;;;;;;;1.30;1.20;;;;;;;2.70;78.92;103306.25;5054981;27;97445;-29
2023/01/28 09:19:26;;;;;;;0.50;0.47;;;;;;;2.75;78.75;103308.06;5053850;27;98158;-29
2023/01/28 09:21:51;;;;;;;0.73;0.65;;;;;;;2.81;77.81;103312.56;5055668;27;96619;-29
2023/01/28 09:24:17;;;;;;;0.88;0.70;;;;;;;2.83;77.85;103309.94;5053508;27;96874;-29
2023/01/28 09:26:43;;;;;;;0.85;0.82;;;;;;;2.82;77.06;103318.84;5053774;27;101412;-29
2023/01/28 09:29:09;;;;;;;0.90;0.57;;;;;;;2.76;76.85;103336.66;5053695;27;100858;-29
2023/01/28 09:31:34;;;;;;;1.23;1.13;;;;;;;2.86;77.01;103326.00;5055678;27;96565;-29
2023/01/28 09:34:00;;;;;;;0.63;0.63;;;;;;;2.91;77.65;103335.91;5055870;27;96597;-29
2023/01/28 09:36:25;;;;;;;0.63;0.63;;;;;;;3.05;77.83;103343.16;5054878;27;97929;-29
2023/01/28 09:38:51;;;;;;;0.70;0.60;;;;;;;3.13;78.05;103337.00;5054905;27;99157;-29
2023/01/28 09:41:26;;;;;;;0.32;0.32;;;;;;;3.15;77.33;103340.59;5054942;27;96560;-29
2023/01/28 09:44:22;;;;;;;1.27;0.75;;;;;;;3.20;77.00;103346.00;5055299;27;96697;-29
2023/01/28 09:46:48;;;;;;;0.45;0.38;;;;;;;3.17;75.80;103345.94;5053509;27;101070;-31
2023/01/28 09:49:33;;;;;;;1.17;1.02;;;;;;;3.19;76.43;103345.13;5054337;27;97902;-29
2023/01/28 09:51:59;;;;;;;1.10;0.82;;;;;;;3.18;76.25;103337.94;5053892;27;96608;-28
2023/01/28 09:54:37;;;;;;;1.30;1.02;;;;;;;3.20;76.52;103335.28;5054707;27;96813;-29
2023/01/28 09:57:47;;;;;;;0.93;0.63;;;;;;;3.28;75.63;103341.59;5053506;27;101121;-29
2023/01/28 10:00:15;;;;;;;1.38;0.60;;;;;;;3.33;76.30;103339.88;5044018;27;101061;-29
2023/01/28 10:03:05;;;;;;;0.93;0.45;;;;;;;3.46;76.18;103340.88;5053537;27;96553;-30
2023/01/28 10:05:54;;;;;;;1.38;0.88;;;;;;;3.72;74.52;103342.84;5055076;27;96579;-28
2023/01/28 10:08:27;;;;;;;0.95;0.77;;;;;;;3.89;73.92;103343.88;5052901;27;101266;-28
2023/01/28 10:11:01;;;;;;;1.08;0.73;;;;;;;4.19;74.26;103344.94;5053353;27;101032;-28
2023/01/28 10:13:54;;;;;;;1.15;0.70;;;;;;;4.49;73.08;103346.00;5051742;27;97517;-29
2023/01/28 10:16:33;;;;;;;1.20;0.90;;;;;;;4.75;72.65;103357.72;5055083;27;96696;-28
2023/01/28 10:19:06;;;;;;;1.27;1.17;;;;;;;4.99;72.53;103351.50;5054351;27;100099;-29
2023/01/28 10:22:04;;;;;;;0.93;0.65;;;;;;;4.99;70.88;103339.88;5053548;27;101202;-29
2023/01/28 10:24:35;;;;;;;0.65;0.60;;;;;;;5.14;72.03;103342.56;5057984;27;101156;-29
2023/01/28 10:27:02;;;;;;;0.95;0.80;;;;;;;5.34;71.14;103342.63;5051351;27;96722;-29
2023/01/28 10:29:34;;;;;;;1.17;0.73;;;;;;;5.60;70.57;103339.00;5036267;28;100911;-28
2023/01/28 10:32:29;;;;;;;1.70;0.90;;;;;;;5.74;68.62;103343.50;5035187;28;100891;-28
2023/01/28 10:34:58;;;;;;;1.27;0.73;;;;;;;5.87;68.61;103333.59;5037541;28;96616;-29
2023/01/28 10:37:24;;;;;;;0.95;0.80;;;;;;;5.92;68.06;103329.09;5036548;28;96797;-28
2023/01/28 10:39:55;;;;;;;0.52;0.30;;;;;;;6.01;68.16;103330.94;5036131;28;100900;-29
2023/01/28 10:42:35;;;;;;;0.65;0.55;;;;;;;6.18;67.12;103328.19;5036081;28;100753;-28
2023/01/28 10:45:30;;;;;;;0.40;0.35;;;;;;;6.35;66.28;103320.94;5036464;28;96615;-29
2023/01/28 10:48:02;;;;;;;2.90;0.98;;;;;;;6.47;67.90;103325.38;5036296;28;96656;-31
2023/01/28 10:50:29;;;;;;;0.85;0.70;;;;;;;6.48;65.74;103319.06;5037088;27;97998;-31
2023/01/28 10:53:04;;;;;;;0.73;0.65;;;;;;;6.57;65.70;103326.22;5033580;28;101037;-29
2023/01/28 10:55:37;;;;;;;0.70;0.60;;;;;;;6.72;66.01;103320.78;5033540;28;96832;-29
2023/01/28 10:58:04;;;;;;;1.02;0.80;;;;;;;6.83;65.79;103319.81;5034256;28;96802;-29
2023/01/28 11:00:35;;;;;;;1.17;0.85;;;;;;;6.85;66.27;103308.13;5035238;28;99195;-29
2023/01/28 11:03:01;;;;;;;0.88;0.68;;;;;;;6.91;64.05;103310.78;5034571;28;101452;-29
2023/01/28 11:05:30;;;;;;;1.02;0.75;;;;;;;6.78;63.96;103298.28;5037394;28;96810;-30
2023/01/28 11:08:05;;;;;;;0.55;0.50;;;;;;;6.93;63.66;103281.13;5036004;28;96824;-30
2023/01/28 11:10:36;;;;;;;0.75;0.75;;;;;;;6.99;63.91;103273.91;5035523;28;101590;-28
2023/01/28 11:13:04;;;;;;;1.23;0.77;;;;;;;7.06;63.92;103257.69;5035488;28;101470;-28
2023/01/28 11:15:30;;;;;;;0.68;0.47;;;;;;;7.15;63.40;103261.19;5035818;28;96722;-30
2023/01/28 11:18:05;;;;;;;0.82;0.82;;;;;;;7.20;62.69;103248.56;5036146;28;96675;-29
2023/01/28 11:20:36;;;;;;;0.80;0.70;;;;;;;7.29;63.71;103238.59;5035476;28;99112;-33
2023/01/28 11:23:01;;;;;;;0.70;0.67;;;;;;;7.28;62.15;103229.63;5036741;28;98873;-29
2023/01/28 11:25:29;;;;;;;1.38;0.63;;;;;;;7.22;62.40;103237.75;5036487;27;96820;-29
2023/01/28 11:27:55;;;;;;;0.93;0.57;;;;;;;7.28;62.21;103235.03;5035737;28;96811;-28
2023/01/28 11:30:33;;;;;;;1.48;0.77;;;;;;;7.40;62.22;103216.03;5036490;27;98808;-29
2023/01/28 11:33:25;;;;;;;0.47;0.40;;;;;;;7.39;64.37;103211.56;5034402;27;101155;-28
2023/01/28 11:35:56;;;;;;;0.65;0.50;;;;;;;7.44;62.84;103212.41;5037421;28;96452;-29
2023/01/28 11:38:25;;;;;;;1.10;0.65;;;;;;;7.59;64.36;103210.44;5035609;28;96711;-28
2023/01/28 11:40:55;;;;;;;1.08;0.77;;;;;;;7.60;61.82;103198.72;5036646;28;98393;-29
2023/01/28 11:43:27;;;;;;;0.98;0.85;;;;;;;7.50;62.88;103192.56;5037107;28;97379;-30
2023/01/28 11:46:17;;;;;;;0.70;0.60;;;;;;;7.50;62.13;103186.28;5035467;28;96553;-32
2023/01/28 11:49:00;;;;;;;0.68;0.65;;;;;;;7.36;62.23;103189.09;5035505;28;96870;-28
2023/01/28 11:51:52;;;;;;;1.08;0.77;;;;;;;7.27;61.65;103202.66;5034689;28;101047;-29
2023/01/28 11:54:45;;;;;;;1.13;0.80;;;;;;;7.41;62.23;103198.03;5034639;28;100960;-28
2023/01/28 11:57:28;;;;;;;0.70;0.70;;;;;;;7.50;60.77;103211.44;5036445;28;96628;-29
2023/01/28 12:00:16;;;;;;;1.02;0.90;;;;;;;7.64;61.26;103220.25;5035370;28;96727;-29
2023/01/28 12:02:44;;;;;;;1.02;0.65;;;;;;;7.62;59.80;103219.38;5036285;28;97947;-29
2023/01/28 12:05:47;;;;;;;0.93;0.68;;;;;;;7.54;59.52;103215.88;5036338;28;97996;-29
2023/01/28 12:08:24;;;;;;;0.73;0.50;;;;;;;7.64;60.29;103228.34;5035323;28;96545;-29
2023/01/28 12:11:17;;;;;;;1.05;0.75;;;;;;;7.73;60.46;103231.88;5035103;28;97161;-29
2023/01/28 12:14:05;;;;;;;0.35;0.35;;;;;;;7.84;61.66;103221.84;5036241;28;97586;-30